createdAt,value
2023-03-21T00:00:48.257Z,8.70
2023-03-21T00:03:16.313Z,8.70
2023-03-21T00:05:51.708Z,8.60
2023-03-21T00:08:18.980Z,8.50
2023-03-21T00:10:46.250Z,8.40
2023-03-21T00:13:14.950Z,8.30
2023-03-21T00:16:14.216Z,8.30
2023-03-21T00:18:46.317Z,8.20
2023-03-21T00:21:40.706Z,8.20
2023-03-21T00:24:03.081Z,8.10
2023-03-21T00:26:29.837Z,8.10
2023-03-21T00:28:56.585Z,8.10
2023-03-21T00:31:23.583Z,8.10
2023-03-21T00:33:50.706Z,8.10
2023-03-21T00:36:17.818Z,8.10
2023-03-21T00:38:44.873Z,8.10
2023-03-21T00:41:25.902Z,8.10
2023-03-21T00:43:58.640Z,8.10
2023-03-21T00:46:36.344Z,8.10
2023-03-21T00:49:09.254Z,8.10
2023-03-21T00:51:36.221Z,8.20
2023-03-21T00:54:05.508Z,8.20
2023-03-21T00:56:32.885Z,8.20
2023-03-21T00:58:59.816Z,8.30
2023-03-21T01:01:31.842Z,8.30
2023-03-21T01:04:07.988Z,8.30
2023-03-21T01:06:40.853Z,8.30
2023-03-21T01:09:13.692Z,8.30
2023-03-21T01:11:42.012Z,8.40
2023-03-21T01:14:21.885Z,8.40
2023-03-21T01:16:50.888Z,8.50
2023-03-21T01:19:37.993Z,8.50
2023-03-21T01:22:08.689Z,8.50
2023-03-21T01:24:40.537Z,8.50
2023-03-21T01:27:10.612Z,8.60
2023-03-21T01:29:37.646Z,8.60
2023-03-21T01:32:04.646Z,8.70
2023-03-21T01:34:31.966Z,8.70
2023-03-21T01:36:58.836Z,8.70
2023-03-21T01:39:25.620Z,8.70
2023-03-21T01:41:52.548Z,8.70
2023-03-21T01:44:22.631Z,8.70
2023-03-21T01:47:03.943Z,8.70
2023-03-21T01:49:51.208Z,8.80
2023-03-21T01:52:39.038Z,8.80
2023-03-21T01:55:26.474Z,8.80
2023-03-21T01:58:11.318Z,8.80
2023-03-21T02:00:48.538Z,8.80
2023-03-21T02:03:35.672Z,8.80
2023-03-21T02:06:40.796Z,8.80
2023-03-21T02:09:21.819Z,8.80
2023-03-21T02:11:49.507Z,8.80
2023-03-21T02:14:28.246Z,8.90
2023-03-21T02:17:28.391Z,8.90
2023-03-21T02:20:22.039Z,8.90
2023-03-21T02:22:52.227Z,8.90
2023-03-21T02:25:46.355Z,8.90
2023-03-21T02:28:21.059Z,8.90
2023-03-21T02:31:06.653Z,8.90
2023-03-21T02:33:52.542Z,8.90
2023-03-21T02:36:44.304Z,8.90
2023-03-21T02:39:18.912Z,8.80
2023-03-21T02:41:55.076Z,8.80
2023-03-21T02:44:50.372Z,8.80
2023-03-21T02:47:25.869Z,8.70
2023-03-21T02:50:12.961Z,8.60
2023-03-21T02:52:42.352Z,8.60
2023-03-21T02:55:20.093Z,8.60
2023-03-21T02:57:54.871Z,8.60
2023-03-21T03:00:29.582Z,8.70
2023-03-21T03:03:08.760Z,8.70
2023-03-21T03:05:46.986Z,8.70
2023-03-21T03:08:41.389Z,8.80
2023-03-21T03:11:28.704Z,8.70
2023-03-21T03:14:56.355Z,8.60
2023-03-21T03:17:58.075Z,8.60
2023-03-21T03:20:39.471Z,8.60
2023-03-21T03:23:30.745Z,8.60
2023-03-21T03:26:05.945Z,8.60
2023-03-21T03:28:39.094Z,8.60
2023-03-21T03:31:15.333Z,8.60
2023-03-21T03:33:54.433Z,8.70
2023-03-21T03:36:31.990Z,8.70
2023-03-21T03:39:07.156Z,8.70
2023-03-21T03:42:06.019Z,8.70
2023-03-21T03:44:36.312Z,8.70
2023-03-21T03:47:11.896Z,8.60
2023-03-21T03:49:48.197Z,8.60
2023-03-21T03:52:22.651Z,8.60
2023-03-21T03:54:56.038Z,8.60
2023-03-21T03:57:27.093Z,8.60
2023-03-21T03:59:55.569Z,8.60
2023-03-21T04:02:46.007Z,8.60
2023-03-21T04:05:21.220Z,8.60
2023-03-21T04:07:50.842Z,8.60
2023-03-21T04:10:21.100Z,8.60
2023-03-21T04:12:47.989Z,8.50
2023-03-21T04:15:23.173Z,8.50
2023-03-21T04:17:55.808Z,8.50
2023-03-21T04:20:43.408Z,8.50
2023-03-21T04:23:11.280Z,8.50
2023-03-21T04:25:47.595Z,8.50
2023-03-21T04:28:22.050Z,8.40
2023-03-21T04:31:05.207Z,8.40
2023-03-21T04:33:45.091Z,8.40
2023-03-21T04:36:24.712Z,8.50
2023-03-21T04:38:53.743Z,8.50
2023-03-21T04:41:20.645Z,8.50
2023-03-21T04:43:48.772Z,8.60
2023-03-21T04:46:15.644Z,8.60
2023-03-21T04:48:42.462Z,8.60
2023-03-21T04:51:09.344Z,8.60
2023-03-21T04:53:38.410Z,8.50
2023-03-21T04:56:06.705Z,8.50
2023-03-21T04:58:34.345Z,8.50
2023-03-21T05:01:02.644Z,8.50
2023-03-21T05:03:34.468Z,8.50
2023-03-21T05:06:01.869Z,8.50
2023-03-21T05:08:28.707Z,8.50
2023-03-21T05:10:55.631Z,8.50
2023-03-21T05:13:25.843Z,8.50
2023-03-21T05:15:52.908Z,8.50
2023-03-21T05:18:24.812Z,8.50
2023-03-21T05:21:13.387Z,8.50
2023-03-21T05:23:40.676Z,8.40
2023-03-21T05:26:10.254Z,8.40
2023-03-21T05:28:44.508Z,8.50
2023-03-21T05:31:15.720Z,8.50
2023-03-21T05:33:45.110Z,8.40
2023-03-21T05:36:15.937Z,8.40
2023-03-21T05:38:45.673Z,8.40
2023-03-21T05:41:14.864Z,8.40
2023-03-21T05:43:42.071Z,8.40
2023-03-21T05:46:10.519Z,8.40
2023-03-21T05:48:37.535Z,8.50
2023-03-21T05:51:12.913Z,8.50
2023-03-21T05:53:40.106Z,8.60
2023-03-21T05:56:08.425Z,8.60
2023-03-21T05:58:49.460Z,8.70
2023-03-21T06:01:16.998Z,8.80
2023-03-21T06:03:52.765Z,8.80
2023-03-21T06:06:24.199Z,8.80
2023-03-21T06:08:56.015Z,8.80
2023-03-21T06:11:28.131Z,8.90
2023-03-21T06:14:13.901Z,8.90
2023-03-21T06:16:42.211Z,9.00
2023-03-21T06:19:09.112Z,9.10
2023-03-21T06:21:47.674Z,9.10
2023-03-21T06:24:14.905Z,9.20
2023-03-21T06:26:42.863Z,9.20
2023-03-21T06:29:10.249Z,9.40
2023-03-21T06:31:37.146Z,9.50
2023-03-21T06:34:05.916Z,9.60
2023-03-21T06:36:33.405Z,9.70
2023-03-21T06:39:00.533Z,9.80
2023-03-21T06:41:27.719Z,9.80
2023-03-21T06:44:00.415Z,9.90
2023-03-21T06:46:30.299Z,10.00
2023-03-21T06:48:57.050Z,10.10
2023-03-21T06:51:25.289Z,10.10
2023-03-21T06:54:05.461Z,10.30
2023-03-21T06:56:41.599Z,10.40
2023-03-21T06:59:11.344Z,10.40
2023-03-21T07:01:54.373Z,10.40
2023-03-21T07:04:21.423Z,10.50
2023-03-21T07:06:49.779Z,10.50
2023-03-21T07:09:24.404Z,10.60
2023-03-21T07:11:53.876Z,10.80
2023-03-21T07:14:25.582Z,10.90
2023-03-21T07:16:52.407Z,11.00
2023-03-21T07:19:19.128Z,11.10
2023-03-21T07:21:46.304Z,11.20
2023-03-21T07:24:13.345Z,11.30
2023-03-21T07:26:40.333Z,11.50
2023-03-21T07:29:07.281Z,11.60
2023-03-21T07:31:34.160Z,11.80
2023-03-21T07:34:02.245Z,11.90
2023-03-21T07:36:29.139Z,12.00
2023-03-21T07:38:56.217Z,12.10
2023-03-21T07:41:24.345Z,12.10
2023-03-21T07:43:51.224Z,12.20
2023-03-21T07:46:20.349Z,12.30
2023-03-21T07:48:48.782Z,12.40
2023-03-21T07:51:15.725Z,12.50
2023-03-21T07:53:43.821Z,12.50
2023-03-21T07:56:10.776Z,12.50
2023-03-21T07:58:37.535Z,12.60
2023-03-21T08:01:04.411Z,12.70
2023-03-21T08:03:33.145Z,12.80
2023-03-21T08:06:03.707Z,12.80
2023-03-21T08:08:30.768Z,12.90
2023-03-21T08:10:57.534Z,12.90
2023-03-21T08:13:26.069Z,12.90
2023-03-21T08:15:53.246Z,12.90
2023-03-21T08:18:20.098Z,12.90
2023-03-21T08:20:50.929Z,13.10
2023-03-21T08:23:17.916Z,13.20
2023-03-21T08:25:44.707Z,13.20
2023-03-21T08:28:11.430Z,13.30
2023-03-21T08:30:38.474Z,13.30
2023-03-21T08:33:05.324Z,13.30
2023-03-21T08:35:32.283Z,13.50
2023-03-21T08:37:59.027Z,13.70
2023-03-21T08:40:25.937Z,13.90
2023-03-21T08:42:53.151Z,14.00
2023-03-21T08:45:20.419Z,14.20
2023-03-21T08:47:47.501Z,14.50
2023-03-21T08:50:18.741Z,14.80
2023-03-21T08:52:46.572Z,15.10
2023-03-21T08:55:14.900Z,15.50
2023-03-21T08:57:41.842Z,15.80
2023-03-21T09:00:14.962Z,16.20
2023-03-21T09:02:43.053Z,16.50
2023-03-21T09:05:11.983Z,16.70
2023-03-21T09:07:40.433Z,17.00
2023-03-21T09:10:25.359Z,17.20
2023-03-21T09:12:54.048Z,17.40
2023-03-21T09:15:24.460Z,17.60
2023-03-21T09:17:54.012Z,17.70
2023-03-21T09:20:30.654Z,17.90
2023-03-21T09:22:58.683Z,18.00
2023-03-21T09:25:29.421Z,18.20
2023-03-21T09:27:56.518Z,18.70
2023-03-21T09:30:26.131Z,19.60
2023-03-21T09:32:55.514Z,20.10
2023-03-21T09:35:22.644Z,20.70
2023-03-21T09:37:50.103Z,20.70
2023-03-21T09:40:55.865Z,20.70
2023-03-21T09:43:35.526Z,20.60
2023-03-21T09:46:22.500Z,21.60
2023-03-21T09:49:10.641Z,22.70
2023-03-21T09:51:42.898Z,23.80
2023-03-21T09:54:22.850Z,24.30
2023-03-21T09:56:54.625Z,24.70
2023-03-21T09:59:40.015Z,25.00
2023-03-21T10:02:33.320Z,25.70
2023-03-21T10:05:01.090Z,26.30
2023-03-21T10:07:39.644Z,26.80
2023-03-21T10:10:07.391Z,27.20
2023-03-21T10:12:34.888Z,27.50
2023-03-21T10:15:03.247Z,27.50
2023-03-21T10:17:37.455Z,27.40
2023-03-21T10:20:12.032Z,27.60
2023-03-21T10:22:39.339Z,27.90
2023-03-21T10:25:07.640Z,28.00
2023-03-21T10:27:36.994Z,28.20
2023-03-21T10:30:07.476Z,28.30
2023-03-21T10:32:35.166Z,28.60
2023-03-21T10:35:04.954Z,28.90
2023-03-21T10:37:32.582Z,28.60
2023-03-21T10:39:59.639Z,27.90
2023-03-21T10:42:32.868Z,26.90
2023-03-21T10:44:59.785Z,26.10
2023-03-21T10:47:36.393Z,26.30
2023-03-21T10:50:09.627Z,26.80
2023-03-21T10:52:44.890Z,27.80
2023-03-21T10:55:28.826Z,28.50
2023-03-21T10:58:08.242Z,29.20
2023-03-21T11:00:39.327Z,29.80
2023-03-21T11:03:07.232Z,29.60
2023-03-21T11:05:40.700Z,29.80
2023-03-21T11:08:14.881Z,29.80
2023-03-21T11:11:06.329Z,29.70
2023-03-21T11:13:44.605Z,30.00
2023-03-21T11:16:22.970Z,30.10
2023-03-21T11:18:51.865Z,30.40
2023-03-21T11:21:20.054Z,30.10
2023-03-21T11:23:50.161Z,29.40
2023-03-21T11:26:30.122Z,29.00
2023-03-21T11:28:57.639Z,28.80
2023-03-21T11:31:38.844Z,28.80
2023-03-21T11:34:10.984Z,28.90
2023-03-21T11:36:39.169Z,28.60
2023-03-21T11:39:33.628Z,28.30
2023-03-21T11:42:00.505Z,28.40
2023-03-21T11:44:35.349Z,28.50
2023-03-21T11:47:02.334Z,28.60
2023-03-21T11:49:29.437Z,28.60
2023-03-21T11:52:32.539Z,28.40
2023-03-21T11:55:07.481Z,28.20
2023-03-21T11:57:37.477Z,27.70
2023-03-21T12:00:14.435Z,27.00
2023-03-21T12:03:24.418Z,26.80
2023-03-21T12:06:02.309Z,26.70
2023-03-21T12:09:02.169Z,26.60
2023-03-21T12:11:56.564Z,26.30
2023-03-21T12:14:51.297Z,25.80
2023-03-21T12:17:25.727Z,25.60
2023-03-21T12:20:21.329Z,25.40
2023-03-21T12:23:15.718Z,25.00
2023-03-21T12:26:08.091Z,24.40
2023-03-21T12:29:07.322Z,23.70
2023-03-21T12:31:43.130Z,23.10
2023-03-21T12:34:36.868Z,22.60
2023-03-21T12:37:28.507Z,22.10
2023-03-21T12:40:13.990Z,21.90
2023-03-21T12:42:52.598Z,21.60
2023-03-21T12:45:24.782Z,21.40
2023-03-21T12:47:58.012Z,21.00
2023-03-21T12:50:29.836Z,20.80
2023-03-21T12:53:02.039Z,20.50
2023-03-21T12:55:32.448Z,20.10
2023-03-21T12:58:19.662Z,19.80
2023-03-21T13:01:01.316Z,19.60
2023-03-21T13:03:43.802Z,19.50
2023-03-21T13:06:18.115Z,19.10
2023-03-21T13:08:50.738Z,19.00
2023-03-21T13:11:21.101Z,18.90
2023-03-21T13:14:19.922Z,18.90
2023-03-21T13:17:01.582Z,18.80
2023-03-21T13:19:37.050Z,18.80
2023-03-21T13:22:03.807Z,18.70
2023-03-21T13:24:43.810Z,18.60
2023-03-21T13:27:29.678Z,18.50
2023-03-21T13:30:19.833Z,18.40
2023-03-21T13:32:49.846Z,18.40
2023-03-21T13:35:29.719Z,18.50
2023-03-21T13:38:12.765Z,18.50
2023-03-21T13:40:51.559Z,18.50
2023-03-21T13:43:52.144Z,18.60
2023-03-21T13:46:25.054Z,18.50
2023-03-21T13:49:10.597Z,18.40
2023-03-21T13:51:45.665Z,18.40
2023-03-21T13:54:15.559Z,18.30
2023-03-21T13:56:46.340Z,18.30
2023-03-21T13:59:18.374Z,18.30
2023-03-21T14:02:21.739Z,18.30
2023-03-21T14:05:04.749Z,18.30
2023-03-21T14:07:59.404Z,18.20
2023-03-21T14:10:43.348Z,18.10
2023-03-21T14:13:16.312Z,18.10
2023-03-21T14:15:55.263Z,18.20
2023-03-21T14:18:51.691Z,18.10
2023-03-21T14:21:24.257Z,18.30
2023-03-21T14:24:04.650Z,18.30
2023-03-21T14:26:37.828Z,18.10
2023-03-21T14:29:12.433Z,18.00
2023-03-21T14:31:47.736Z,17.90
2023-03-21T14:34:16.893Z,17.90
2023-03-21T14:36:51.607Z,18.00
2023-03-21T14:39:29.731Z,18.10
2023-03-21T14:42:08.019Z,18.10
2023-03-21T14:44:52.828Z,18.10
2023-03-21T14:47:29.291Z,18.20
2023-03-21T14:49:57.146Z,18.10
2023-03-21T14:52:32.727Z,18.10
2023-03-21T14:55:01.428Z,18.10
2023-03-21T14:57:31.382Z,17.90
2023-03-21T15:00:06.850Z,17.70
2023-03-21T15:02:36.628Z,17.50
2023-03-21T15:05:10.456Z,17.50
2023-03-21T15:07:37.391Z,17.40
2023-03-21T15:10:17.864Z,17.40
2023-03-21T15:12:56.391Z,17.30
2023-03-21T15:15:27.283Z,17.10
2023-03-21T15:17:57.463Z,17.00
2023-03-21T15:20:28.161Z,16.80
2023-03-21T15:23:00.993Z,16.70
2023-03-21T15:25:32.922Z,16.60
2023-03-21T15:28:00.804Z,16.40
2023-03-21T15:30:30.826Z,16.30
2023-03-21T15:33:05.352Z,16.30
2023-03-21T15:35:40.434Z,16.30
2023-03-21T15:38:07.700Z,16.30
2023-03-21T15:40:36.100Z,16.30
2023-03-21T15:43:14.435Z,16.10
2023-03-21T15:45:56.145Z,16.00
2023-03-21T15:48:28.018Z,15.90
2023-03-21T15:51:03.436Z,15.80
2023-03-21T15:53:33.612Z,15.80
2023-03-21T15:56:02.057Z,15.90
2023-03-21T15:58:42.689Z,15.90
2023-03-21T16:01:18.953Z,16.00
2023-03-21T16:03:48.800Z,16.10
2023-03-21T16:06:22.095Z,16.10
2023-03-21T16:08:53.701Z,16.00
2023-03-21T16:11:25.768Z,15.90
2023-03-21T16:13:53.953Z,15.80
2023-03-21T16:16:26.369Z,15.60
2023-03-21T16:18:54.475Z,15.50
2023-03-21T16:21:24.765Z,15.50
2023-03-21T16:23:51.628Z,15.50
2023-03-21T16:26:39.006Z,15.50
2023-03-21T16:29:08.422Z,15.50
2023-03-21T16:31:37.113Z,15.40
2023-03-21T16:34:05.289Z,15.30
2023-03-21T16:36:36.559Z,15.20
2023-03-21T16:39:16.868Z,15.20
2023-03-21T16:41:43.968Z,15.20
2023-03-21T16:44:11.735Z,15.10
2023-03-21T16:46:38.449Z,15.10
2023-03-21T16:49:05.593Z,14.90
2023-03-21T16:51:34.813Z,14.80
2023-03-21T16:54:02.642Z,14.80
2023-03-21T16:56:32.367Z,14.80
2023-03-21T16:58:59.209Z,14.80
2023-03-21T17:01:29.980Z,14.70
2023-03-21T17:04:00.089Z,14.60
2023-03-21T17:06:28.990Z,14.50
2023-03-21T17:08:57.340Z,14.40
2023-03-21T17:11:26.603Z,14.30
2023-03-21T17:13:55.134Z,14.10
2023-03-21T17:16:26.709Z,14.00
2023-03-21T17:18:54.441Z,13.80
2023-03-21T17:21:23.861Z,13.80
2023-03-21T17:23:51.125Z,13.70
2023-03-21T17:26:21.393Z,13.70
2023-03-21T17:28:48.467Z,13.60
2023-03-21T17:31:21.066Z,13.50
2023-03-21T17:33:48.577Z,13.30
2023-03-21T17:36:18.781Z,13.20
2023-03-21T17:38:46.142Z,13.20
2023-03-21T17:41:14.809Z,13.10
2023-03-21T17:43:41.621Z,13.00
2023-03-21T17:46:22.319Z,13.00
2023-03-21T17:48:49.931Z,12.90
2023-03-21T17:51:17.614Z,12.90
2023-03-21T17:53:46.341Z,12.90
2023-03-21T17:56:26.150Z,12.90
2023-03-21T17:59:00.804Z,12.80
2023-03-21T18:01:28.318Z,12.70
2023-03-21T18:03:55.152Z,12.70
2023-03-21T18:06:24.794Z,12.60
2023-03-21T18:08:53.135Z,12.50
2023-03-21T18:11:21.761Z,12.50
2023-03-21T18:13:48.693Z,12.50
2023-03-21T18:16:21.499Z,12.50
2023-03-21T18:18:49.328Z,12.50
2023-03-21T18:21:19.657Z,12.40
2023-03-21T18:23:47.963Z,12.40
2023-03-21T18:26:21.257Z,12.30
2023-03-21T18:29:43.907Z,12.30
2023-03-21T18:31:37.966Z,12.30
2023-03-21T18:34:05.279Z,12.20
2023-03-21T18:36:32.349Z,12.20
2023-03-21T18:38:59.384Z,12.20
2023-03-21T18:41:26.153Z,12.20
2023-03-21T18:44:01.208Z,12.10
2023-03-21T18:46:32.904Z,12.00
2023-03-21T18:49:19.867Z,12.00
2023-03-21T18:51:47.868Z,11.90
2023-03-21T18:54:14.788Z,11.90
2023-03-21T18:59:36.328Z,11.80
2023-03-21T19:02:04.252Z,11.80
2023-03-21T19:04:32.266Z,11.60
2023-03-21T19:07:00.444Z,11.60
2023-03-21T19:09:31.672Z,11.50
2023-03-21T19:11:59.938Z,11.60
2023-03-21T19:14:27.428Z,11.60
2023-03-21T19:17:43.611Z,11.70
2023-03-21T19:19:43.546Z,11.80
2023-03-21T19:22:10.609Z,11.80
2023-03-21T19:24:37.420Z,11.80
2023-03-21T19:27:04.303Z,11.70
2023-03-21T19:29:31.161Z,11.70
2023-03-21T19:31:58.043Z,11.70
2023-03-21T19:34:24.984Z,11.70
2023-03-21T19:36:52.632Z,11.80
2023-03-21T19:39:22.593Z,11.80
2023-03-21T19:41:50.600Z,11.90
2023-03-21T19:44:19.127Z,11.90
2023-03-21T19:46:46.020Z,11.90
2023-03-21T19:49:13.022Z,11.80
2023-03-21T19:51:39.901Z,11.80
2023-03-21T19:54:07.710Z,11.70
2023-03-21T19:56:34.982Z,11.80
2023-03-21T19:59:02.979Z,11.80
2023-03-21T20:01:32.355Z,11.80
2023-03-21T20:03:59.630Z,11.80
2023-03-21T20:06:27.292Z,11.80
2023-03-21T20:09:41.270Z,11.80
2023-03-21T20:11:41.752Z,11.80
2023-03-21T20:14:08.860Z,11.80
2023-03-21T20:16:36.909Z,11.70
2023-03-21T20:19:05.912Z,11.70
2023-03-21T20:21:42.198Z,11.70
2023-03-21T20:24:12.647Z,11.80
2023-03-21T20:26:39.436Z,11.80
2023-03-21T20:29:46.925Z,11.80
2023-03-21T20:31:53.309Z,11.80
2023-03-21T20:34:21.344Z,11.70
2023-03-21T20:36:48.620Z,11.70
2023-03-21T20:39:15.608Z,11.60
2023-03-21T20:41:42.532Z,11.60
2023-03-21T20:46:56.901Z,11.60
2023-03-21T20:49:24.473Z,11.50
2023-03-21T20:54:38.976Z,11.40
2023-03-21T20:57:05.788Z,11.40
2023-03-21T20:59:32.704Z,11.30
2023-03-21T21:01:59.957Z,11.30
2023-03-21T21:04:47.238Z,11.20
2023-03-21T21:07:17.773Z,11.10
2023-03-21T21:09:45.517Z,11.00
2023-03-21T21:12:14.102Z,10.90
2023-03-21T21:14:41.752Z,10.90
2023-03-21T21:17:42.842Z,10.80
2023-03-21T21:19:56.426Z,10.80
2023-03-21T21:22:23.217Z,10.80
2023-03-21T21:24:50.070Z,10.70
2023-03-21T21:27:17.081Z,10.60
2023-03-21T21:29:47.511Z,10.50
2023-03-21T21:32:16.810Z,10.40
2023-03-21T21:34:43.652Z,10.30
2023-03-21T21:37:10.626Z,10.20
2023-03-21T21:39:38.597Z,10.10
2023-03-21T21:42:05.741Z,10.00
2023-03-21T21:44:32.543Z,9.90
2023-03-21T21:46:59.855Z,9.80
2023-03-21T21:49:27.857Z,9.70
2023-03-21T21:51:56.335Z,9.70
2023-03-21T21:54:23.206Z,9.60
2023-03-21T21:56:53.924Z,9.50
2023-03-21T21:59:22.091Z,9.50
2023-03-21T22:01:51.294Z,9.40
2023-03-21T22:04:27.751Z,9.30
2023-03-21T22:06:56.005Z,9.30
2023-03-21T22:09:22.998Z,9.20
2023-03-21T22:11:49.895Z,9.10
2023-03-21T22:14:16.698Z,9.00
2023-03-21T22:16:44.062Z,9.00
2023-03-21T22:19:10.979Z,8.90
2023-03-21T22:21:37.706Z,8.80
2023-03-21T22:24:04.801Z,8.70
2023-03-21T22:26:31.894Z,8.70
2023-03-21T22:28:59.888Z,8.60
2023-03-21T22:31:26.758Z,8.50
2023-03-21T22:33:53.511Z,8.50
2023-03-21T22:36:20.543Z,8.50
2023-03-21T22:38:47.795Z,8.50
2023-03-21T22:41:14.698Z,8.50
2023-03-21T22:43:41.512Z,8.50
2023-03-21T22:46:08.321Z,8.50
2023-03-21T22:48:35.293Z,8.40
2023-03-21T22:51:02.132Z,8.40
2023-03-21T22:53:29.217Z,8.40
2023-03-21T22:55:56.395Z,8.40
2023-03-21T22:58:23.674Z,8.50
2023-03-21T23:00:50.590Z,8.50
2023-03-21T23:03:17.640Z,8.60
2023-03-21T23:05:45.581Z,8.60
2023-03-21T23:08:13.087Z,8.60
2023-03-21T23:10:43.293Z,8.50
2023-03-21T23:13:10.396Z,8.40
2023-03-21T23:15:38.542Z,8.40
2023-03-21T23:18:06.395Z,8.30
2023-03-21T23:20:33.256Z,8.30
2023-03-21T23:23:00.117Z,8.30
2023-03-21T23:25:28.853Z,8.30
2023-03-21T23:27:55.650Z,8.30
2023-03-21T23:30:22.419Z,8.40
2023-03-21T23:32:49.173Z,8.40
2023-03-21T23:35:16.234Z,8.50
2023-03-21T23:37:52.082Z,8.50
2023-03-21T23:40:20.058Z,8.50
2023-03-21T23:42:46.834Z,8.50
2023-03-21T23:45:13.572Z,8.50
2023-03-21T23:47:40.664Z,8.50
2023-03-21T23:50:09.619Z,8.50
2023-03-21T23:52:37.385Z,8.50
2023-03-21T23:55:05.306Z,8.40
2023-03-21T23:57:32.372Z,8.40
2023-03-21T23:59:59.457Z,8.30
